createdAt,value
2018-03-25T00:00:21.200Z,7.20
2018-03-25T00:02:48.632Z,7.10
2018-03-25T00:05:16.102Z,7.10
2018-03-25T00:07:43.570Z,7.10
2018-03-25T00:10:11.015Z,7.10
2018-03-25T00:12:38.474Z,7.10
2018-03-25T00:15:06.037Z,7.10
2018-03-25T00:17:33.506Z,7.00
2018-03-25T00:20:01.101Z,7.00
2018-03-25T00:22:28.572Z,7.00
2018-03-25T00:24:56.068Z,7.00
2018-03-25T00:27:23.504Z,6.90
2018-03-25T00:29:50.963Z,6.90
2018-03-25T00:32:18.426Z,6.90
2018-03-25T00:34:45.865Z,6.90
2018-03-25T00:37:13.346Z,6.90
2018-03-25T00:39:40.782Z,6.90
2018-03-25T00:42:08.264Z,6.90
2018-03-25T00:44:35.741Z,6.90
2018-03-25T00:47:03.964Z,6.80
2018-03-25T00:49:31.438Z,6.80
2018-03-25T00:51:59.300Z,6.80
2018-03-25T00:54:26.739Z,6.70
2018-03-25T00:56:54.199Z,6.80
2018-03-25T00:59:21.675Z,6.70
2018-03-25T01:01:49.169Z,6.60
2018-03-25T01:04:18.131Z,6.60
2018-03-25T01:06:45.615Z,6.60
2018-03-25T01:09:13.050Z,6.60
2018-03-25T01:11:40.490Z,6.70
2018-03-25T01:14:08.743Z,6.60
2018-03-25T01:16:36.190Z,6.60
2018-03-25T01:19:03.672Z,6.70
2018-03-25T01:21:31.151Z,6.60
2018-03-25T01:23:59.505Z,6.60
2018-03-25T01:26:26.951Z,6.70
2018-03-25T01:28:54.410Z,6.70
2018-03-25T01:31:21.884Z,6.70
2018-03-25T01:33:49.354Z,6.70
2018-03-25T01:36:16.800Z,6.70
2018-03-25T01:38:44.270Z,6.70
2018-03-25T01:41:11.720Z,6.60
2018-03-25T01:43:39.181Z,6.60
2018-03-25T01:46:06.638Z,6.50
2018-03-25T01:48:34.120Z,6.50
2018-03-25T01:51:02.380Z,6.50
2018-03-25T01:53:29.848Z,6.50
2018-03-25T01:55:58.819Z,6.40
2018-03-25T01:58:26.311Z,6.40
2018-03-25T02:00:54.528Z,6.30
2018-03-25T02:03:22.001Z,6.30
2018-03-25T02:05:49.440Z,6.30
2018-03-25T02:08:16.906Z,6.30
2018-03-25T02:10:44.374Z,6.30
2018-03-25T02:13:11.849Z,6.30
2018-03-25T02:15:39.341Z,6.30
2018-03-25T02:18:06.782Z,6.30
2018-03-25T02:20:34.975Z,6.40
2018-03-25T02:23:02.446Z,6.40
2018-03-25T02:25:29.908Z,6.50
2018-03-25T02:27:57.381Z,6.50
2018-03-25T02:30:24.847Z,6.60
2018-03-25T02:32:52.313Z,6.60
2018-03-25T02:35:19.753Z,6.60
2018-03-25T02:37:47.241Z,6.60
2018-03-25T02:40:14.697Z,6.60
2018-03-25T02:42:42.159Z,6.50
2018-03-25T02:45:09.611Z,6.60
2018-03-25T02:47:37.123Z,6.60
2018-03-25T02:50:04.576Z,6.60
2018-03-25T02:52:32.008Z,6.60
2018-03-25T02:55:00.219Z,6.60
2018-03-25T02:57:28.456Z,6.60
2018-03-25T02:59:56.675Z,6.60
2018-03-25T03:02:24.131Z,6.60
2018-03-25T03:04:51.599Z,6.60
2018-03-25T03:07:19.046Z,6.80
2018-03-25T03:09:46.527Z,6.90
2018-03-25T03:12:14.366Z,7.00
2018-03-25T03:14:41.816Z,7.00
2018-03-25T03:17:09.285Z,7.00
2018-03-25T03:19:36.752Z,7.00
2018-03-25T03:22:04.221Z,6.90
2018-03-25T03:24:31.704Z,6.90
2018-03-25T03:26:59.942Z,6.90
2018-03-25T03:29:27.415Z,6.90
2018-03-25T03:31:54.869Z,6.90
2018-03-25T03:34:22.345Z,6.90
2018-03-25T03:36:50.661Z,6.90
2018-03-25T03:39:18.100Z,6.90
2018-03-25T03:41:45.581Z,6.80
2018-03-25T03:44:13.037Z,6.80
2018-03-25T03:46:40.895Z,6.80
2018-03-25T03:49:08.380Z,6.80
2018-03-25T03:51:35.834Z,6.70
2018-03-25T03:54:03.327Z,6.60
2018-03-25T03:56:30.824Z,6.50
2018-03-25T03:58:58.290Z,6.60
2018-03-25T04:01:25.765Z,6.70
2018-03-25T04:03:53.223Z,6.70
2018-03-25T04:06:20.662Z,6.70
2018-03-25T04:08:48.132Z,6.70
2018-03-25T04:11:15.581Z,6.70
2018-03-25T04:13:43.063Z,6.60
2018-03-25T04:16:10.503Z,6.50
2018-03-25T04:18:37.971Z,6.50
2018-03-25T04:21:05.447Z,6.40
2018-03-25T04:23:32.890Z,6.40
2018-03-25T04:26:00.362Z,6.40
2018-03-25T04:28:27.820Z,6.40
2018-03-25T04:30:55.296Z,6.40
2018-03-25T04:33:23.506Z,6.30
2018-03-25T04:35:50.987Z,6.30
2018-03-25T04:38:18.440Z,6.20
2018-03-25T04:40:45.919Z,6.20
2018-03-25T04:43:13.375Z,6.20
2018-03-25T04:45:40.835Z,6.20
2018-03-25T04:48:08.294Z,6.20
2018-03-25T04:50:35.779Z,6.20
2018-03-25T04:53:03.225Z,6.20
2018-03-25T04:55:31.452Z,6.30
2018-03-25T04:57:58.900Z,6.20
2018-03-25T05:00:26.367Z,6.20
2018-03-25T05:02:53.812Z,6.20
2018-03-25T05:05:21.311Z,6.10
2018-03-25T05:07:48.781Z,6.10
2018-03-25T05:10:17.059Z,6.10
2018-03-25T05:12:44.887Z,6.10
2018-03-25T05:15:12.361Z,6.10
2018-03-25T05:17:39.844Z,6.20
2018-03-25T05:20:08.048Z,6.30
2018-03-25T05:22:35.503Z,6.40
2018-03-25T05:25:02.988Z,6.50
2018-03-25T05:27:30.456Z,6.60
2018-03-25T05:29:57.919Z,6.60
2018-03-25T05:32:25.386Z,6.60
2018-03-25T05:34:52.850Z,6.60
2018-03-25T05:37:20.302Z,6.60
2018-03-25T05:39:47.780Z,6.60
2018-03-25T05:42:15.998Z,6.60
2018-03-25T05:44:43.456Z,6.60
2018-03-25T05:47:11.000Z,6.70
2018-03-25T05:49:38.444Z,6.70
2018-03-25T05:52:05.887Z,6.70
2018-03-25T05:54:33.354Z,6.60
2018-03-25T05:57:00.810Z,6.70
2018-03-25T05:59:29.029Z,6.80
2018-03-25T06:01:56.470Z,6.70
2018-03-25T06:04:23.914Z,6.80
2018-03-25T06:06:51.386Z,6.80
2018-03-25T06:09:18.836Z,6.90
2018-03-25T06:11:46.308Z,6.90
2018-03-25T06:14:13.764Z,6.90
2018-03-25T06:16:41.291Z,6.90
2018-03-25T06:19:08.721Z,6.90
2018-03-25T06:21:36.927Z,7.00
2018-03-25T06:24:04.417Z,7.00
2018-03-25T06:26:31.880Z,7.10
2018-03-25T06:28:59.331Z,7.20
2018-03-25T06:31:26.790Z,7.30
2018-03-25T06:33:54.284Z,7.30
2018-03-25T06:36:22.518Z,7.30
2018-03-25T06:38:50.736Z,7.20
2018-03-25T06:41:18.975Z,7.20
2018-03-25T06:43:46.431Z,7.20
2018-03-25T06:46:13.865Z,7.20
2018-03-25T06:48:41.392Z,7.30
2018-03-25T06:51:09.609Z,7.40
2018-03-25T06:53:37.070Z,7.40
2018-03-25T06:56:04.528Z,7.50
2018-03-25T06:58:32.012Z,7.60
2018-03-25T07:01:00.236Z,7.80
2018-03-25T07:03:27.671Z,7.80
2018-03-25T07:05:55.133Z,7.90
2018-03-25T07:08:22.592Z,7.90
2018-03-25T07:10:50.063Z,8.00
2018-03-25T07:13:17.495Z,8.10
2018-03-25T07:15:44.984Z,8.20
2018-03-25T07:18:12.440Z,8.30
2018-03-25T07:20:39.885Z,8.40
2018-03-25T07:23:07.353Z,8.50
2018-03-25T07:25:34.820Z,8.60
2018-03-25T07:28:02.289Z,8.70
2018-03-25T07:30:29.759Z,8.70
2018-03-25T07:32:57.222Z,8.70
2018-03-25T07:35:24.688Z,8.80
2018-03-25T07:37:52.892Z,9.00
2018-03-25T07:40:20.360Z,9.00
2018-03-25T07:42:47.815Z,9.20
2018-03-25T07:45:15.259Z,9.30
2018-03-25T07:47:42.728Z,9.30
2018-03-25T07:50:10.221Z,9.40
2018-03-25T07:52:37.632Z,9.60
2018-03-25T07:55:05.074Z,9.60
2018-03-25T07:57:33.288Z,9.90
2018-03-25T08:00:00.763Z,9.90
2018-03-25T08:02:28.217Z,10.00
2018-03-25T08:04:55.707Z,10.00
2018-03-25T08:07:23.937Z,10.20
2018-03-25T08:09:51.420Z,10.10
2018-03-25T08:12:19.290Z,10.40
2018-03-25T08:14:46.744Z,10.40
2018-03-25T08:17:14.210Z,10.50
2018-03-25T08:19:41.664Z,10.60
2018-03-25T08:22:09.138Z,10.70
2018-03-25T08:24:36.642Z,10.70
2018-03-25T08:27:04.123Z,10.80
2018-03-25T08:29:31.584Z,10.80
2018-03-25T08:31:59.039Z,10.90
2018-03-25T08:34:26.514Z,11.10
2018-03-25T08:36:54.020Z,11.30
2018-03-25T08:39:21.496Z,11.40
2018-03-25T08:41:48.953Z,11.60
2018-03-25T08:44:16.452Z,11.70
2018-03-25T08:46:44.683Z,11.80
2018-03-25T08:49:12.132Z,11.80
2018-03-25T08:51:39.608Z,12.10
2018-03-25T08:54:07.050Z,12.30
2018-03-25T08:56:34.516Z,12.50
2018-03-25T08:59:01.955Z,12.50
2018-03-25T09:01:29.419Z,12.50
2018-03-25T09:03:56.917Z,12.60
2018-03-25T09:06:25.107Z,13.00
2018-03-25T09:08:53.328Z,13.00
2018-03-25T09:11:20.809Z,13.00
2018-03-25T09:13:48.260Z,13.10
2018-03-25T09:16:15.724Z,13.20
2018-03-25T09:18:43.186Z,13.30
2018-03-25T09:21:10.701Z,13.50
2018-03-25T09:23:38.149Z,13.80
2018-03-25T09:26:05.619Z,13.80
2018-03-25T09:28:33.084Z,13.90
2018-03-25T09:31:00.521Z,14.20
2018-03-25T09:33:28.032Z,14.20
2018-03-25T09:35:55.476Z,14.40
2018-03-25T09:38:22.958Z,14.50
2018-03-25T09:40:50.420Z,14.70
2018-03-25T09:43:18.671Z,15.10
2018-03-25T09:45:46.141Z,15.10
2018-03-25T09:48:13.594Z,15.50
2018-03-25T09:50:41.061Z,15.80
2018-03-25T09:53:08.521Z,16.00
2018-03-25T09:55:36.940Z,16.90
2018-03-25T09:58:04.373Z,16.90
2018-03-25T10:00:36.562Z,17.40
2018-03-25T10:03:09.612Z,17.40
2018-03-25T10:05:37.084Z,18.00
2018-03-25T10:08:05.323Z,18.70
2018-03-25T10:10:32.796Z,18.80
2018-03-25T10:13:00.271Z,18.80
2018-03-25T10:15:28.496Z,18.50
2018-03-25T10:17:55.960Z,18.50
2018-03-25T10:20:23.410Z,18.50
2018-03-25T10:22:50.880Z,18.70
2018-03-25T10:25:18.350Z,19.10
2018-03-25T10:27:45.807Z,19.50
2018-03-25T10:30:13.267Z,19.50
2018-03-25T10:32:40.740Z,19.60
2018-03-25T10:35:08.970Z,19.60
2018-03-25T10:37:37.189Z,19.60
2018-03-25T10:40:05.420Z,19.60
2018-03-25T10:42:32.956Z,19.50
2018-03-25T10:45:00.391Z,19.50
2018-03-25T10:47:28.627Z,19.80
2018-03-25T10:49:56.251Z,19.70
2018-03-25T10:52:24.465Z,19.60
2018-03-25T10:54:52.728Z,19.70
2018-03-25T10:57:20.215Z,19.40
2018-03-25T10:59:47.718Z,19.40
2018-03-25T11:02:15.184Z,19.30
2018-03-25T11:04:42.636Z,19.20
2018-03-25T11:07:10.125Z,19.10
2018-03-25T11:09:37.575Z,18.80
2018-03-25T11:12:05.106Z,18.30
2018-03-25T11:14:32.545Z,18.30
2018-03-25T11:17:00.150Z,18.10
2018-03-25T11:19:27.651Z,18.00
2018-03-25T11:21:55.863Z,18.00
2018-03-25T11:24:23.342Z,18.00
2018-03-25T11:26:50.795Z,18.10
2018-03-25T11:29:18.250Z,18.00
2018-03-25T11:31:45.704Z,17.90
2018-03-25T11:34:13.156Z,17.90
2018-03-25T11:36:40.620Z,18.00
2018-03-25T11:39:08.081Z,18.00
2018-03-25T11:41:35.557Z,17.90
2018-03-25T11:44:03.021Z,17.90
2018-03-25T11:46:30.462Z,17.90
2018-03-25T11:48:57.987Z,17.70
2018-03-25T11:51:25.541Z,17.80
2018-03-25T11:53:52.983Z,17.80
2018-03-25T11:56:20.448Z,17.80
2018-03-25T11:58:47.898Z,17.90
2018-03-25T12:01:15.388Z,17.90
2018-03-25T12:03:42.828Z,17.90
2018-03-25T12:06:10.288Z,17.80
2018-03-25T12:08:37.730Z,18.00
2018-03-25T12:11:05.194Z,17.90
2018-03-25T12:13:32.635Z,17.90
2018-03-25T12:16:00.118Z,17.90
2018-03-25T12:18:27.553Z,17.80
2018-03-25T12:20:55.029Z,17.80
2018-03-25T12:23:22.480Z,17.90
2018-03-25T12:25:49.932Z,17.90
2018-03-25T12:28:17.400Z,17.90
2018-03-25T12:30:44.869Z,17.80
2018-03-25T12:33:13.158Z,17.80
2018-03-25T12:35:41.327Z,17.80
2018-03-25T12:38:08.767Z,17.80
2018-03-25T12:40:36.267Z,17.80
2018-03-25T12:43:03.736Z,17.70
2018-03-25T12:45:31.951Z,17.70
2018-03-25T12:47:59.401Z,17.70
2018-03-25T12:50:26.872Z,17.60
2018-03-25T12:52:54.423Z,17.70
2018-03-25T12:55:21.886Z,17.60
2018-03-25T12:57:49.381Z,17.60
2018-03-25T13:00:16.848Z,17.40
2018-03-25T13:02:44.315Z,17.40
2018-03-25T13:05:12.537Z,17.30
2018-03-25T13:07:40.022Z,17.20
2018-03-25T13:10:07.932Z,17.00
2018-03-25T13:12:35.407Z,17.00
2018-03-25T13:15:02.875Z,16.80
2018-03-25T13:17:30.348Z,16.70
2018-03-25T13:19:57.791Z,16.70
2018-03-25T13:22:25.279Z,16.60
2018-03-25T13:24:53.478Z,16.60
2018-03-25T13:27:20.996Z,16.50
2018-03-25T13:29:49.336Z,16.20
2018-03-25T13:32:16.910Z,16.20
2018-03-25T13:34:44.392Z,16.20
2018-03-25T13:37:12.600Z,16.30
2018-03-25T13:39:40.827Z,16.30
2018-03-25T13:42:08.293Z,16.20
2018-03-25T13:44:35.757Z,16.20
2018-03-25T13:47:03.212Z,16.20
2018-03-25T13:49:30.692Z,16.10
2018-03-25T13:51:58.152Z,16.20
2018-03-25T13:54:25.660Z,20.10
2018-03-25T13:56:53.847Z,16.10
2018-03-25T13:59:21.315Z,16.10
2018-03-25T14:01:48.759Z,16.10
2018-03-25T14:04:16.248Z,16.10
2018-03-25T14:06:44.487Z,16.20
2018-03-25T14:09:11.947Z,16.20
2018-03-25T14:11:39.597Z,16.20
2018-03-25T14:14:07.058Z,16.30
2018-03-25T14:16:34.525Z,16.30
2018-03-25T14:19:02.070Z,16.30
2018-03-25T14:21:29.493Z,16.30
2018-03-25T14:23:57.728Z,16.20
2018-03-25T14:26:25.199Z,16.20
2018-03-25T14:28:52.678Z,16.10
2018-03-25T14:31:20.551Z,16.00
2018-03-25T14:33:48.018Z,15.90
2018-03-25T14:36:16.256Z,15.80
2018-03-25T14:38:43.699Z,15.60
2018-03-25T14:41:11.187Z,15.60
2018-03-25T14:43:38.651Z,15.60
2018-03-25T14:46:06.863Z,15.60
2018-03-25T14:48:34.342Z,15.60
2018-03-25T14:51:01.799Z,15.50
2018-03-25T14:53:30.155Z,15.50
2018-03-25T14:55:57.629Z,15.10
2018-03-25T14:58:25.064Z,14.90
2018-03-25T15:00:52.535Z,14.90
2018-03-25T15:03:19.991Z,14.70
2018-03-25T15:05:47.467Z,14.70
2018-03-25T15:08:15.675Z,14.40
2018-03-25T15:10:43.887Z,14.40
2018-03-25T15:13:11.356Z,14.40
2018-03-25T15:15:38.834Z,14.50
2018-03-25T15:18:06.295Z,14.50
2018-03-25T15:20:33.753Z,14.50
2018-03-25T15:23:01.240Z,14.50
2018-03-25T15:25:29.462Z,14.50
2018-03-25T15:27:56.958Z,14.40
2018-03-25T15:30:24.439Z,14.50
2018-03-25T15:32:51.907Z,14.50
2018-03-25T15:35:19.381Z,14.50
2018-03-25T15:37:46.826Z,14.60
2018-03-25T15:40:14.288Z,14.50
2018-03-25T15:42:41.739Z,14.60
2018-03-25T15:45:09.218Z,14.60
2018-03-25T15:47:36.659Z,14.70
2018-03-25T15:50:04.130Z,14.70
2018-03-25T15:52:31.616Z,14.70
2018-03-25T15:54:59.055Z,14.80
2018-03-25T15:57:26.533Z,14.90
2018-03-25T15:59:54.000Z,14.80
2018-03-25T16:02:21.463Z,14.70
2018-03-25T16:04:49.308Z,14.60
2018-03-25T16:07:16.810Z,14.50
2018-03-25T16:09:44.258Z,14.40
2018-03-25T16:12:12.498Z,14.40
2018-03-25T16:14:40.373Z,14.40
2018-03-25T16:17:07.811Z,14.40
2018-03-25T16:19:35.254Z,14.30
2018-03-25T16:22:02.791Z,14.30
2018-03-25T16:24:30.186Z,14.30
2018-03-25T16:26:57.719Z,14.30
2018-03-25T16:29:25.280Z,14.30
2018-03-25T16:31:52.714Z,14.30
2018-03-25T16:34:20.943Z,14.20
2018-03-25T16:36:48.405Z,14.20
2018-03-25T16:39:15.869Z,14.10
2018-03-25T16:41:44.369Z,14.10
2018-03-25T16:44:13.046Z,13.90
2018-03-25T16:46:41.269Z,13.90
2018-03-25T16:49:08.733Z,13.80
2018-03-25T16:51:36.205Z,13.80
2018-03-25T16:54:03.660Z,13.80
2018-03-25T16:56:31.158Z,13.80
2018-03-25T16:58:59.740Z,13.70
2018-03-25T17:01:27.969Z,13.70
2018-03-25T17:03:55.438Z,13.70
2018-03-25T17:06:22.900Z,13.70
2018-03-25T17:08:50.361Z,13.60
2018-03-25T17:11:17.824Z,13.50
2018-03-25T17:13:45.344Z,13.50
2018-03-25T17:16:12.808Z,13.50
2018-03-25T17:18:40.343Z,13.40
2018-03-25T17:21:07.769Z,13.40
2018-03-25T17:23:36.003Z,13.40
2018-03-25T17:26:03.479Z,13.30
2018-03-25T17:28:31.693Z,13.30
2018-03-25T17:30:59.162Z,13.30
2018-03-25T17:33:26.626Z,13.30
2018-03-25T17:35:54.087Z,13.20
2018-03-25T17:38:21.540Z,13.10
2018-03-25T17:40:49.031Z,13.20
2018-03-25T17:43:16.490Z,13.10
2018-03-25T17:45:43.941Z,13.20
2018-03-25T17:48:11.409Z,13.10
2018-03-25T17:50:38.855Z,13.10
2018-03-25T17:53:06.328Z,13.00
2018-03-25T17:55:33.820Z,13.00
2018-03-25T17:58:01.248Z,13.00
2018-03-25T18:00:28.770Z,13.00
2018-03-25T18:02:56.242Z,13.00
2018-03-25T18:05:23.709Z,13.00
2018-03-25T18:07:51.953Z,13.00
2018-03-25T18:10:19.393Z,12.90
2018-03-25T18:12:46.871Z,12.90
2018-03-25T18:15:14.427Z,12.90
2018-03-25T18:17:41.879Z,12.80
2018-03-25T18:20:09.337Z,12.80
2018-03-25T18:22:36.831Z,12.80
2018-03-25T18:25:04.267Z,12.80
2018-03-25T18:27:31.731Z,12.80
2018-03-25T18:29:59.205Z,12.80
2018-03-25T18:32:26.660Z,12.70
2018-03-25T18:34:54.143Z,12.70
2018-03-25T18:37:22.388Z,12.70
2018-03-25T18:39:49.941Z,12.60
2018-03-25T18:42:18.123Z,12.50
2018-03-25T18:44:45.569Z,12.50
2018-03-25T18:47:13.078Z,12.60
2018-03-25T18:49:41.290Z,12.50
2018-03-25T18:52:08.734Z,12.50
2018-03-25T18:54:36.195Z,12.50
2018-03-25T18:57:03.667Z,12.50
2018-03-25T18:59:31.929Z,12.40
2018-03-25T19:01:59.387Z,12.40
2018-03-25T19:04:26.836Z,12.40
2018-03-25T19:06:54.296Z,12.40
2018-03-25T19:09:21.786Z,12.40
2018-03-25T19:11:49.261Z,12.40
2018-03-25T19:14:16.709Z,12.30
2018-03-25T19:16:44.181Z,12.30
2018-03-25T19:19:11.652Z,12.30
2018-03-25T19:21:39.907Z,12.30
2018-03-25T19:24:07.373Z,12.30
2018-03-25T19:26:34.851Z,12.20
2018-03-25T19:29:03.066Z,12.20
2018-03-25T19:31:30.540Z,12.20
2018-03-25T19:33:57.990Z,12.20
2018-03-25T19:36:25.457Z,12.20
2018-03-25T19:38:52.919Z,12.20
2018-03-25T19:41:20.380Z,12.20
2018-03-25T19:43:47.846Z,12.20
2018-03-25T19:46:15.290Z,12.10
2018-03-25T19:48:42.861Z,12.10
2018-03-25T19:51:10.311Z,12.10
2018-03-25T19:53:37.768Z,12.10
2018-03-25T19:56:05.233Z,12.10
2018-03-25T19:58:32.708Z,12.00
2018-03-25T20:01:00.942Z,12.10
2018-03-25T20:03:28.413Z,12.10
2018-03-25T20:05:55.884Z,12.10
2018-03-25T20:08:23.341Z,12.10
2018-03-25T20:10:50.817Z,12.10
2018-03-25T20:13:18.277Z,12.10
2018-03-25T20:15:46.499Z,12.10
2018-03-25T20:18:13.967Z,12.10
2018-03-25T20:20:41.428Z,12.10
2018-03-25T20:23:08.906Z,12.10
2018-03-25T20:25:36.360Z,12.00
2018-03-25T20:28:03.863Z,11.90
2018-03-25T20:30:31.296Z,11.90
2018-03-25T20:32:58.730Z,11.90
2018-03-25T20:35:26.195Z,11.90
2018-03-25T20:37:54.416Z,11.80
2018-03-25T20:40:21.890Z,11.80
2018-03-25T20:42:49.623Z,11.70
2018-03-25T20:45:17.083Z,11.60
2018-03-25T20:47:44.553Z,11.70
2018-03-25T20:50:12.006Z,11.70
2018-03-25T20:52:39.566Z,11.60
2018-03-25T20:55:07.078Z,11.60
2018-03-25T20:57:34.496Z,11.60
2018-03-25T21:00:02.168Z,11.60
2018-03-25T21:02:29.640Z,11.50
2018-03-25T21:04:57.082Z,11.50
2018-03-25T21:07:24.570Z,11.50
2018-03-25T21:09:52.068Z,11.40
2018-03-25T21:12:19.591Z,11.40
2018-03-25T21:14:47.802Z,11.30
2018-03-25T21:17:15.257Z,11.30
2018-03-25T21:19:42.722Z,11.30
2018-03-25T21:22:10.170Z,11.30
2018-03-25T21:24:37.634Z,11.30
2018-03-25T21:27:05.087Z,11.30
2018-03-25T21:29:32.554Z,11.30
2018-03-25T21:32:00.010Z,11.30
2018-03-25T21:34:27.485Z,11.30
2018-03-25T21:36:54.933Z,11.30
2018-03-25T21:39:22.407Z,11.20
2018-03-25T21:41:49.871Z,11.20
2018-03-25T21:44:17.347Z,11.20
2018-03-25T21:46:45.604Z,11.20
2018-03-25T21:49:13.192Z,11.20
2018-03-25T21:51:41.439Z,11.20
2018-03-25T21:54:08.933Z,11.20
2018-03-25T21:56:36.363Z,11.20
2018-03-25T21:59:03.817Z,11.10
2018-03-25T22:01:31.268Z,11.10
2018-03-25T22:03:58.734Z,11.10
2018-03-25T22:06:26.270Z,11.00
2018-03-25T22:08:53.739Z,11.00
2018-03-25T22:11:21.206Z,11.00
2018-03-25T22:13:48.700Z,10.90
2018-03-25T22:16:16.920Z,11.00
2018-03-25T22:18:58.899Z,11.00
2018-03-25T22:21:26.378Z,11.00
2018-03-25T22:23:53.859Z,11.10
2018-03-25T22:26:22.139Z,11.00
2018-03-25T22:28:49.590Z,11.00
2018-03-25T22:31:17.068Z,11.00
2018-03-25T22:33:44.553Z,11.00
2018-03-25T22:36:12.009Z,11.00
2018-03-25T22:38:39.514Z,11.00
2018-03-25T22:41:06.931Z,10.90
2018-03-25T22:43:34.390Z,11.00
2018-03-25T22:46:01.855Z,11.00
2018-03-25T22:48:29.396Z,11.10
2018-03-25T22:50:56.826Z,11.10
2018-03-25T22:53:24.300Z,11.10
2018-03-25T22:55:51.826Z,11.00
2018-03-25T22:58:19.255Z,11.10
2018-03-25T23:00:46.742Z,11.00
2018-03-25T23:03:14.267Z,11.00
2018-03-25T23:05:41.714Z,11.00
2018-03-25T23:08:09.197Z,11.00
2018-03-25T23:10:37.471Z,11.00
2018-03-25T23:13:04.926Z,11.00
2018-03-25T23:15:32.399Z,11.00
2018-03-25T23:17:59.880Z,11.00
2018-03-25T23:20:27.355Z,11.00
2018-03-25T23:22:54.819Z,11.00
2018-03-25T23:25:22.292Z,10.90
2018-03-25T23:27:49.746Z,11.00
2018-03-25T23:30:17.236Z,11.00
2018-03-25T23:32:44.676Z,10.90
2018-03-25T23:35:12.154Z,10.90
2018-03-25T23:37:39.595Z,10.90
2018-03-25T23:40:07.067Z,10.90
2018-03-25T23:42:34.516Z,10.80
2018-03-25T23:45:01.979Z,10.90
2018-03-25T23:47:29.428Z,10.90
2018-03-25T23:49:56.898Z,10.80
2018-03-25T23:52:24.352Z,10.70
2018-03-25T23:54:51.812Z,10.80
2018-03-25T23:57:19.289Z,10.70
2018-03-25T23:59:47.516Z,10.80
